Archival Weather

Republic

Farmingdale, New York (KFRG)

Report from: Tuesday, January 30, 2024 11:53 AM EST
Current time: Friday, June 21, 2024 5:08 AM EDT

Current weather – Weather history – Daily summaries
Weather forecast

Temperature2.2°C (36.0°F)
Wind chill-0.5°C (31.1°F)
Dew point-4.4°C (24.1°F)
Winds 5 kts (2.6 m/s, 5.8 mph) Southeast (130°)
Visibility10 mi. (16.1 km)
Clouds Ceiling: Overcast 2,900 ft. (884 m)
Altimeter30.22 in.Hg (1023 mB)
Relative humidity62 %
Density altitude-1,828 ft. (-557 m)
Sea-level pressure102.3 kPa (1023 mB, 30.22 in.Hg)
Remarks Automated weather observing station without precipitation discriminator
Flight conditions Marginal Visual Meteorological Conditions
Raw dataKFRG 301653Z 13005KT 10SM OVC029 02/M04 A3022 RMK AO1 SLP233 T00221044
An error has occurred. This application may no longer respond until reloaded. Reload 🗙